sensor_id;sensor_type;location;lat;lon;timestamp;pressure;altitude;pressure_sealevel;temperature;humidity
43814;BME280;29669;55.706;37.656;2022-12-15T00:01:36;100206.88;;;-2.53;nan
43814;BME280;29669;55.706;37.656;2022-12-15T00:04:43;100222.66;;;-2.46;nan
43814;BME280;29669;55.706;37.656;2022-12-15T00:07:49;100229.09;;;-2.39;nan
43814;BME280;29669;55.706;37.656;2022-12-15T00:10:56;100229.63;;;-2.33;nan
43814;BME280;29669;55.706;37.656;2022-12-15T00:14:02;100227.63;;;-2.26;nan
43814;BME280;29669;55.706;37.656;2022-12-15T00:17:08;100231.22;;;-2.30;nan
43814;BME280;29669;55.706;37.656;2022-12-15T00:20:15;100237.88;;;-2.28;nan
43814;BME280;29669;55.706;37.656;2022-12-15T00:23:21;100230.94;;;-2.24;nan
43814;BME280;29669;55.706;37.656;2022-12-15T00:26:28;100236.63;;;-2.19;nan
43814;BME280;29669;55.706;37.656;2022-12-15T00:29:34;100239.13;;;-2.18;nan
43814;BME280;29669;55.706;37.656;2022-12-15T00:32:40;100260.81;;;-2.11;nan
43814;BME280;29669;55.706;37.656;2022-12-15T00:38:52;100248.84;;;-2.09;nan
43814;BME280;29669;55.706;37.656;2022-12-15T00:41:41;100242.78;;;-2.06;nan
43814;BME280;29669;55.706;37.656;2022-12-15T00:44:29;100256.31;;;-2.06;nan
43814;BME280;29669;55.706;37.656;2022-12-15T00:47:16;100245.28;;;-2.05;nan
43814;BME280;29669;55.706;37.656;2022-12-15T00:50:04;100247.66;;;-2.02;nan
43814;BME280;29669;55.706;37.656;2022-12-15T00:53:11;100251.03;;;-2.01;nan
43814;BME280;29669;55.706;37.656;2022-12-15T00:56:17;100257.84;;;-2.02;nan
43814;BME280;29669;55.706;37.656;2022-12-15T00:59:24;100248.50;;;-2.01;nan
43814;BME280;29669;55.706;37.656;2022-12-15T01:05:36;100253.69;;;-2.04;nan
43814;BME280;29669;55.706;37.656;2022-12-15T01:08:43;100258.00;;;-2.05;nan
43814;BME280;29669;55.706;37.656;2022-12-15T01:11:49;100263.19;;;-2.08;nan
43814;BME280;29669;55.706;37.656;2022-12-15T01:14:55;100262.38;;;-2.08;nan
43814;BME280;29669;55.706;37.656;2022-12-15T01:18:02;100272.34;;;-2.04;nan
43814;BME280;29669;55.706;37.656;2022-12-15T01:21:10;100276.47;;;-2.01;nan
43814;BME280;29669;55.706;37.656;2022-12-15T01:23:58;100278.09;;;-2.00;nan
43814;BME280;29669;55.706;37.656;2022-12-15T01:26:46;100275.47;;;-1.99;nan
43814;BME280;29669;55.706;37.656;2022-12-15T01:32:20;100281.31;;;-1.97;nan
43814;BME280;29669;55.706;37.656;2022-12-15T01:37:56;100282.50;;;-2.04;nan
43814;BME280;29669;55.706;37.656;2022-12-15T01:40:50;100282.03;;;-2.12;nan
43814;BME280;29669;55.706;37.656;2022-12-15T01:43:39;100282.69;;;-2.25;nan
43814;BME280;29669;55.706;37.656;2022-12-15T01:46:27;100285.63;;;-2.34;nan
43814;BME280;29669;55.706;37.656;2022-12-15T01:49:17;100292.84;;;-2.44;nan
43814;BME280;29669;55.706;37.656;2022-12-15T01:52:08;100295.31;;;-2.61;nan
43814;BME280;29669;55.706;37.656;2022-12-15T01:54:57;100310.59;;;-2.81;nan
43814;BME280;29669;55.706;37.656;2022-12-15T01:57:45;100308.72;;;-2.96;nan
43814;BME280;29669;55.706;37.656;2022-12-15T02:00:34;100304.97;;;-3.08;nan
43814;BME280;29669;55.706;37.656;2022-12-15T02:06:11;100303.25;;;-3.27;nan
43814;BME280;29669;55.706;37.656;2022-12-15T02:08:59;100307.88;;;-3.37;nan
43814;BME280;29669;55.706;37.656;2022-12-15T02:17:59;100318.56;;;-3.49;nan
43814;BME280;29669;55.706;37.656;2022-12-15T02:21:54;100322.94;;;-3.52;nan
43814;BME280;29669;55.706;37.656;2022-12-15T02:24:49;100322.28;;;-3.57;nan
43814;BME280;29669;55.706;37.656;2022-12-15T02:28:06;100339.31;;;-3.61;nan
43814;BME280;29669;55.706;37.656;2022-12-15T02:31:04;100326.84;;;-3.65;nan
43814;BME280;29669;55.706;37.656;2022-12-15T02:37:29;100336.53;;;-3.75;nan
43814;BME280;29669;55.706;37.656;2022-12-15T02:40:18;100330.75;;;-3.78;nan
43814;BME280;29669;55.706;37.656;2022-12-15T02:43:07;100341.75;;;-3.79;nan
43814;BME280;29669;55.706;37.656;2022-12-15T02:53:05;100345.97;;;-3.78;nan
43814;BME280;29669;55.706;37.656;2022-12-15T03:01:57;100349.47;;;-3.61;nan
43814;BME280;29669;55.706;37.656;2022-12-15T03:04:47;100349.38;;;-3.58;nan
43814;BME280;29669;55.706;37.656;2022-12-15T03:07:35;100343.94;;;-3.49;nan
43814;BME280;29669;55.706;37.656;2022-12-15T03:10:24;100352.53;;;-3.31;nan
43814;BME280;29669;55.706;37.656;2022-12-15T03:13:12;100353.78;;;-3.21;nan
43814;BME280;29669;55.706;37.656;2022-12-15T03:16:00;100360.06;;;-3.10;nan
43814;BME280;29669;55.706;37.656;2022-12-15T03:18:48;100362.91;;;-2.97;nan
43814;BME280;29669;55.706;37.656;2022-12-15T03:21:36;100356.47;;;-2.84;nan
43814;BME280;29669;55.706;37.656;2022-12-15T03:27:11;100354.66;;;-2.62;nan
43814;BME280;29669;55.706;37.656;2022-12-15T03:29:59;100346.63;;;-2.53;nan
43814;BME280;29669;55.706;37.656;2022-12-15T03:32:46;100361.53;;;-2.45;nan
43814;BME280;29669;55.706;37.656;2022-12-15T03:35:34;100355.34;;;-2.40;nan
43814;BME280;29669;55.706;37.656;2022-12-15T03:38:22;100351.66;;;-2.33;nan
43814;BME280;29669;55.706;37.656;2022-12-15T03:41:10;100354.06;;;-2.30;nan
43814;BME280;29669;55.706;37.656;2022-12-15T03:43:57;100354.59;;;-2.23;nan
43814;BME280;29669;55.706;37.656;2022-12-15T03:46:45;100362.94;;;-2.20;nan
43814;BME280;29669;55.706;37.656;2022-12-15T03:49:33;100362.94;;;-2.20;nan
43814;BME280;29669;55.706;37.656;2022-12-15T03:52:21;100362.94;;;-2.20;nan
43814;BME280;29669;55.706;37.656;2022-12-15T03:55:10;100361.69;;;-2.11;nan
43814;BME280;29669;55.706;37.656;2022-12-15T03:57:59;100370.00;;;-2.08;nan
43814;BME280;29669;55.706;37.656;2022-12-15T04:00:47;100377.53;;;-2.05;nan
43814;BME280;29669;55.706;37.656;2022-12-15T04:06:22;100375.03;;;-2.06;nan
43814;BME280;29669;55.706;37.656;2022-12-15T04:09:10;100370.78;;;-2.06;nan
43814;BME280;29669;55.706;37.656;2022-12-15T04:11:58;100375.72;;;-2.03;nan
43814;BME280;29669;55.706;37.656;2022-12-15T04:14:45;100378.06;;;-1.98;nan
43814;BME280;29669;55.706;37.656;2022-12-15T04:20:21;100380.47;;;-1.95;nan
43814;BME280;29669;55.706;37.656;2022-12-15T04:25:56;100385.50;;;-1.94;nan
43814;BME280;29669;55.706;37.656;2022-12-15T04:29:02;100389.06;;;-1.98;nan
43814;BME280;29669;55.706;37.656;2022-12-15T04:32:09;100381.63;;;-2.02;nan
43814;BME280;29669;55.706;37.656;2022-12-15T04:38:22;100393.25;;;-1.97;nan
43814;BME280;29669;55.706;37.656;2022-12-15T04:44:41;100396.50;;;-1.93;nan
43814;BME280;29669;55.706;37.656;2022-12-15T04:47:49;100395.66;;;-1.94;nan
43814;BME280;29669;55.706;37.656;2022-12-15T04:54:02;100406.72;;;-1.95;nan
43814;BME280;29669;55.706;37.656;2022-12-15T04:57:08;100419.38;;;-1.93;nan
43814;BME280;29669;55.706;37.656;2022-12-15T05:06:27;100423.72;;;-1.95;nan
43814;BME280;29669;55.706;37.656;2022-12-15T05:09:34;100421.09;;;-1.94;nan
43814;BME280;29669;55.706;37.656;2022-12-15T05:12:42;100433.06;;;-1.96;nan
43814;BME280;29669;55.706;37.656;2022-12-15T05:15:49;100414.00;;;-2.06;nan
43814;BME280;29669;55.706;37.656;2022-12-15T05:18:56;100425.34;;;-2.13;nan
43814;BME280;29669;55.706;37.656;2022-12-15T05:22:03;100429.88;;;-2.19;nan
43814;BME280;29669;55.706;37.656;2022-12-15T05:25:09;100429.72;;;-2.35;nan
43814;BME280;29669;55.706;37.656;2022-12-15T05:28:16;100429.66;;;-2.53;nan
43814;BME280;29669;55.706;37.656;2022-12-15T05:31:22;100423.25;;;-2.62;nan
43814;BME280;29669;55.706;37.656;2022-12-15T05:34:30;100429.50;;;-2.69;nan
43814;BME280;29669;55.706;37.656;2022-12-15T05:37:19;100435.59;;;-2.73;nan
43814;BME280;29669;55.706;37.656;2022-12-15T05:40:08;100427.00;;;-2.91;nan
43814;BME280;29669;55.706;37.656;2022-12-15T05:42:57;100417.69;;;-3.12;nan
43814;BME280;29669;55.706;37.656;2022-12-15T05:45:45;100433.31;;;-3.21;nan
43814;BME280;29669;55.706;37.656;2022-12-15T05:48:34;100427.00;;;-3.32;nan
43814;BME280;29669;55.706;37.656;2022-12-15T05:51:22;100445.66;;;-3.33;nan
43814;BME280;29669;55.706;37.656;2022-12-15T05:56:58;100441.94;;;-3.46;nan
43814;BME280;29669;55.706;37.656;2022-12-15T05:59:48;100453.88;;;-3.48;nan
43814;BME280;29669;55.706;37.656;2022-12-15T06:02:36;100448.03;;;-3.50;nan
43814;BME280;29669;55.706;37.656;2022-12-15T06:05:24;100458.97;;;-3.50;nan
43814;BME280;29669;55.706;37.656;2022-12-15T06:08:12;100452.38;;;-3.54;nan
43814;BME280;29669;55.706;37.656;2022-12-15T06:11:00;100444.03;;;-3.57;nan
43814;BME280;29669;55.706;37.656;2022-12-15T06:13:49;100450.72;;;-3.55;nan
43814;BME280;29669;55.706;37.656;2022-12-15T06:19:37;100474.81;;;-3.43;nan
43814;BME280;29669;55.706;37.656;2022-12-15T06:25:14;100470.09;;;-3.52;nan
43814;BME280;29669;55.706;37.656;2022-12-15T06:28:02;100482.53;;;-3.46;nan
43814;BME280;29669;55.706;37.656;2022-12-15T06:30:52;100483.34;;;-3.46;nan
43814;BME280;29669;55.706;37.656;2022-12-15T06:36:28;100490.16;;;-3.46;nan
43814;BME280;29669;55.706;37.656;2022-12-15T06:39:17;100498.34;;;-3.40;nan
43814;BME280;29669;55.706;37.656;2022-12-15T06:42:05;100508.16;;;-3.31;nan
43814;BME280;29669;55.706;37.656;2022-12-15T06:44:54;100495.84;;;-3.18;nan
43814;BME280;29669;55.706;37.656;2022-12-15T06:47:42;100509.94;;;-3.11;nan
43814;BME280;29669;55.706;37.656;2022-12-15T06:53:20;100504.22;;;-3.16;nan
43814;BME280;29669;55.706;37.656;2022-12-15T06:56:19;100515.16;;;-3.14;nan
43814;BME280;29669;55.706;37.656;2022-12-15T07:01:56;100527.78;;;-3.13;nan
43814;BME280;29669;55.706;37.656;2022-12-15T07:04:45;100529.72;;;-3.19;nan
43814;BME280;29669;55.706;37.656;2022-12-15T07:07:33;100537.22;;;-3.16;nan
43814;BME280;29669;55.706;37.656;2022-12-15T07:10:22;100522.63;;;-3.11;nan
43814;BME280;29669;55.706;37.656;2022-12-15T07:13:11;100532.66;;;-3.08;nan
43814;BME280;29669;55.706;37.656;2022-12-15T07:16:00;100543.34;;;-3.00;nan
43814;BME280;29669;55.706;37.656;2022-12-15T07:18:48;100532.31;;;-2.99;nan
43814;BME280;29669;55.706;37.656;2022-12-15T07:21:36;100545.84;;;-2.99;nan
43814;BME280;29669;55.706;37.656;2022-12-15T07:24:24;100525.72;;;-3.03;nan
43814;BME280;29669;55.706;37.656;2022-12-15T07:27:13;100538.91;;;-2.95;nan
43814;BME280;29669;55.706;37.656;2022-12-15T07:30:01;100538.69;;;-2.89;nan
43814;BME280;29669;55.706;37.656;2022-12-15T07:32:49;100538.69;;;-2.89;nan
43814;BME280;29669;55.706;37.656;2022-12-15T07:35:38;100538.69;;;-2.89;nan
43814;BME280;29669;55.706;37.656;2022-12-15T07:44:01;100536.91;;;-2.87;nan
43814;BME280;29669;55.706;37.656;2022-12-15T07:46:49;100540.34;;;-2.88;nan
43814;BME280;29669;55.706;37.656;2022-12-15T07:49:38;100535.13;;;-2.85;nan
43814;BME280;29669;55.706;37.656;2022-12-15T07:55:13;100540.59;;;-2.94;nan
43814;BME280;29669;55.706;37.656;2022-12-15T08:03:39;100550.50;;;-3.10;nan
43814;BME280;29669;55.706;37.656;2022-12-15T08:06:28;100542.72;;;-3.05;nan
43814;BME280;29669;55.706;37.656;2022-12-15T08:09:16;100544.13;;;-2.98;nan
43814;BME280;29669;55.706;37.656;2022-12-15T08:12:05;100542.09;;;-3.12;nan
43814;BME280;29669;55.706;37.656;2022-12-15T08:14:54;100540.34;;;-3.10;nan
43814;BME280;29669;55.706;37.656;2022-12-15T08:17:42;100540.69;;;-2.97;nan
43814;BME280;29669;55.706;37.656;2022-12-15T08:20:31;100536.28;;;-2.92;nan
43814;BME280;29669;55.706;37.656;2022-12-15T08:26:10;100530.69;;;-2.80;nan
43814;BME280;29669;55.706;37.656;2022-12-15T08:29:03;100532.50;;;-2.82;nan
43814;BME280;29669;55.706;37.656;2022-12-15T08:32:13;100546.66;;;-2.76;nan
43814;BME280;29669;55.706;37.656;2022-12-15T08:35:02;100537.22;;;-2.73;nan
43814;BME280;29669;55.706;37.656;2022-12-15T08:38:02;100544.84;;;-2.73;nan
43814;BME280;29669;55.706;37.656;2022-12-15T08:40:52;100538.31;;;-2.80;nan
43814;BME280;29669;55.706;37.656;2022-12-15T08:43:40;100552.81;;;-2.82;nan
43814;BME280;29669;55.706;37.656;2022-12-15T08:46:34;100542.06;;;-2.89;nan
43814;BME280;29669;55.706;37.656;2022-12-15T08:52:11;100558.63;;;-2.80;nan
43814;BME280;29669;55.706;37.656;2022-12-15T08:57:46;100548.41;;;-2.57;nan
43814;BME280;29669;55.706;37.656;2022-12-15T09:00:34;100557.94;;;-2.42;nan
43814;BME280;29669;55.706;37.656;2022-12-15T09:03:22;100543.22;;;-2.34;nan
43814;BME280;29669;55.706;37.656;2022-12-15T09:06:13;100544.50;;;-2.24;nan
43814;BME280;29669;55.706;37.656;2022-12-15T09:09:04;100533.00;;;-2.12;nan
43814;BME280;29669;55.706;37.656;2022-12-15T09:11:54;100531.13;;;-2.09;nan
43814;BME280;29669;55.706;37.656;2022-12-15T09:14:42;100547.78;;;-2.02;nan
43814;BME280;29669;55.706;37.656;2022-12-15T09:17:30;100545.09;;;-1.99;nan
43814;BME280;29669;55.706;37.656;2022-12-15T09:20:18;100535.56;;;-1.94;nan
43814;BME280;29669;55.706;37.656;2022-12-15T09:23:06;100541.53;;;-1.95;nan
43814;BME280;29669;55.706;37.656;2022-12-15T09:26:08;100529.84;;;-1.99;nan
43814;BME280;29669;55.706;37.656;2022-12-15T09:28:56;100530.63;;;-2.17;nan
43814;BME280;29669;55.706;37.656;2022-12-15T09:31:44;100524.84;;;-2.20;nan
43814;BME280;29669;55.706;37.656;2022-12-15T09:34:33;100519.19;;;-2.27;nan
43814;BME280;29669;55.706;37.656;2022-12-15T09:37:21;100499.16;;;-2.54;nan
43814;BME280;29669;55.706;37.656;2022-12-15T09:52:19;100485.88;;;-2.61;nan
43814;BME280;29669;55.706;37.656;2022-12-15T09:55:26;100478.63;;;-2.70;nan
43814;BME280;29669;55.706;37.656;2022-12-15T10:01:19;100472.41;;;-2.63;nan
43814;BME280;29669;55.706;37.656;2022-12-15T10:07:36;100456.69;;;-2.71;nan
43814;BME280;29669;55.706;37.656;2022-12-15T10:10:33;100439.13;;;-2.77;nan
43814;BME280;29669;55.706;37.656;2022-12-15T10:19:13;100433.44;;;-2.82;nan
43814;BME280;29669;55.706;37.656;2022-12-15T10:22:03;100423.28;;;-2.82;nan
43814;BME280;29669;55.706;37.656;2022-12-15T10:24:52;100418.94;;;-2.80;nan
43814;BME280;29669;55.706;37.656;2022-12-15T10:31:17;100432.06;;;-2.70;nan
43814;BME280;29669;55.706;37.656;2022-12-15T10:34:21;100412.84;;;-2.76;nan
43814;BME280;29669;55.706;37.656;2022-12-15T10:37:18;100423.13;;;-2.79;nan
43814;BME280;29669;55.706;37.656;2022-12-15T10:40:07;100440.75;;;-2.74;nan
43814;BME280;29669;55.706;37.656;2022-12-15T10:42:55;100432.91;;;-2.70;nan
43814;BME280;29669;55.706;37.656;2022-12-15T10:48:31;100453.59;;;-2.59;nan
43814;BME280;29669;55.706;37.656;2022-12-15T10:54:13;100441.47;;;-2.72;nan
43814;BME280;29669;55.706;37.656;2022-12-15T10:57:16;100449.06;;;-2.71;nan
43814;BME280;29669;55.706;37.656;2022-12-15T11:03:20;100460.03;;;-2.70;nan
43814;BME280;29669;55.706;37.656;2022-12-15T11:06:20;100470.63;;;-2.81;nan
43814;BME280;29669;55.706;37.656;2022-12-15T11:09:27;100463.25;;;-2.87;nan
43814;BME280;29669;55.706;37.656;2022-12-15T11:12:20;100472.88;;;-2.95;nan
43814;BME280;29669;55.706;37.656;2022-12-15T11:30:28;100486.56;;;-2.98;nan
43814;BME280;29669;55.706;37.656;2022-12-15T11:39:52;100458.03;;;-3.04;nan
43814;BME280;29669;55.706;37.656;2022-12-15T11:52:32;100449.63;;;-3.06;nan
43814;BME280;29669;55.706;37.656;2022-12-15T11:55:38;100453.19;;;-3.10;nan
43814;BME280;29669;55.706;37.656;2022-12-15T12:02:09;100453.31;;;-3.13;nan
43814;BME280;29669;55.706;37.656;2022-12-15T12:11:38;100432.97;;;-3.33;nan
43814;BME280;29669;55.706;37.656;2022-12-15T12:14:50;100425.41;;;-3.35;nan
43814;BME280;29669;55.706;37.656;2022-12-15T12:17:46;100422.06;;;-3.35;nan
43814;BME280;29669;55.706;37.656;2022-12-15T12:29:46;100413.84;;;-3.20;nan
43814;BME280;29669;55.706;37.656;2022-12-15T12:35:48;100413.94;;;-3.23;nan
43814;BME280;29669;55.706;37.656;2022-12-15T12:38:41;100396.41;;;-3.29;nan
43814;BME280;29669;55.706;37.656;2022-12-15T12:41:39;100389.81;;;-3.33;nan
43814;BME280;29669;55.706;37.656;2022-12-15T12:44:33;100398.22;;;-3.31;nan
43814;BME280;29669;55.706;37.656;2022-12-15T12:47:31;100381.91;;;-3.47;nan
43814;BME280;29669;55.706;37.656;2022-12-15T12:53:26;100382.63;;;-3.44;nan
43814;BME280;29669;55.706;37.656;2022-12-15T12:56:41;100376.72;;;-3.44;nan
43814;BME280;29669;55.706;37.656;2022-12-15T12:59:35;100376.06;;;-3.49;nan
43814;BME280;29669;55.706;37.656;2022-12-15T13:08:18;100359.25;;;-3.52;nan
43814;BME280;29669;55.706;37.656;2022-12-15T13:17:38;100342.41;;;-3.53;nan
43814;BME280;29669;55.706;37.656;2022-12-15T13:20:30;100340.78;;;-3.55;nan
43814;BME280;29669;55.706;37.656;2022-12-15T13:26:13;100336.84;;;-3.62;nan
43814;BME280;29669;55.706;37.656;2022-12-15T13:34:37;100301.47;;;-3.65;nan
43814;BME280;29669;55.706;37.656;2022-12-15T13:40:51;100315.03;;;-3.66;nan
43814;BME280;29669;55.706;37.656;2022-12-15T13:43:45;100303.50;;;-3.73;nan
43814;BME280;29669;55.706;37.656;2022-12-15T13:46:35;100300.88;;;-3.72;nan
43814;BME280;29669;55.706;37.656;2022-12-15T13:49:28;100296.44;;;-3.67;nan
43814;BME280;29669;55.706;37.656;2022-12-15T13:52:28;100288.03;;;-3.67;nan
43814;BME280;29669;55.706;37.656;2022-12-15T13:55:51;100283.31;;;-3.76;nan
43814;BME280;29669;55.706;37.656;2022-12-15T13:58:53;100284.91;;;-3.74;nan
43814;BME280;29669;55.706;37.656;2022-12-15T14:01:50;100278.19;;;-3.75;nan
43814;BME280;29669;55.706;37.656;2022-12-15T14:04:39;100290.03;;;-3.75;nan
43814;BME280;29669;55.706;37.656;2022-12-15T14:07:27;100289.13;;;-3.74;nan
43814;BME280;29669;55.706;37.656;2022-12-15T14:10:24;100285.72;;;-3.73;nan
43814;BME280;29669;55.706;37.656;2022-12-15T14:13:23;100285.84;;;-3.76;nan
43814;BME280;29669;55.706;37.656;2022-12-15T14:16:18;100288.56;;;-3.81;nan
43814;BME280;29669;55.706;37.656;2022-12-15T14:19:14;100271.66;;;-3.80;nan
43814;BME280;29669;55.706;37.656;2022-12-15T14:22:03;100278.38;;;-3.79;nan
43814;BME280;29669;55.706;37.656;2022-12-15T14:24:52;100271.53;;;-3.77;nan
43814;BME280;29669;55.706;37.656;2022-12-15T14:27:45;100262.16;;;-3.75;nan
43814;BME280;29669;55.706;37.656;2022-12-15T14:30:37;100255.47;;;-3.78;nan
43814;BME280;29669;55.706;37.656;2022-12-15T14:33:25;100265.38;;;-3.72;nan
43814;BME280;29669;55.706;37.656;2022-12-15T14:36:18;100272.16;;;-3.72;nan
43814;BME280;29669;55.706;37.656;2022-12-15T14:42:04;100253.00;;;-3.79;nan
43814;BME280;29669;55.706;37.656;2022-12-15T14:44:54;100258.59;;;-3.71;nan
43814;BME280;29669;55.706;37.656;2022-12-15T14:47:52;100255.16;;;-3.70;nan
43814;BME280;29669;55.706;37.656;2022-12-15T14:51:01;100258.78;;;-3.76;nan
43814;BME280;29669;55.706;37.656;2022-12-15T14:53:52;100269.88;;;-3.78;nan
43814;BME280;29669;55.706;37.656;2022-12-15T14:56:43;100256.53;;;-3.84;nan
43814;BME280;29669;55.706;37.656;2022-12-15T14:59:33;100257.63;;;-3.89;nan
43814;BME280;29669;55.706;37.656;2022-12-15T15:02:27;100245.25;;;-3.97;nan
43814;BME280;29669;55.706;37.656;2022-12-15T15:05:25;100271.28;;;-3.93;nan
43814;BME280;29669;55.706;37.656;2022-12-15T15:08:24;100247.78;;;-3.97;nan
43814;BME280;29669;55.706;37.656;2022-12-15T15:14:09;100256.22;;;-3.96;nan
43814;BME280;29669;55.706;37.656;2022-12-15T15:17:04;100270.66;;;-3.98;nan
43814;BME280;29669;55.706;37.656;2022-12-15T15:19:57;100274.13;;;-4.01;nan
43814;BME280;29669;55.706;37.656;2022-12-15T15:22:46;100279.19;;;-4.01;nan
43814;BME280;29669;55.706;37.656;2022-12-15T15:25:47;100271.06;;;-4.09;nan
43814;BME280;29669;55.706;37.656;2022-12-15T15:28:43;100270.41;;;-4.14;nan
43814;BME280;29669;55.706;37.656;2022-12-15T15:31:36;100271.31;;;-4.15;nan
43814;BME280;29669;55.706;37.656;2022-12-15T15:34:28;100259.41;;;-4.13;nan
43814;BME280;29669;55.706;37.656;2022-12-15T15:37:24;100263.53;;;-4.10;nan
43814;BME280;29669;55.706;37.656;2022-12-15T15:40:13;100266.88;;;-4.10;nan
43814;BME280;29669;55.706;37.656;2022-12-15T15:43:12;100260.06;;;-4.08;nan
43814;BME280;29669;55.706;37.656;2022-12-15T15:48:54;100238.69;;;-4.02;nan
43814;BME280;29669;55.706;37.656;2022-12-15T15:51:42;100227.63;;;-4.00;nan
43814;BME280;29669;55.706;37.656;2022-12-15T15:54:32;100229.16;;;-3.96;nan
43814;BME280;29669;55.706;37.656;2022-12-15T15:57:22;100229.78;;;-3.91;nan
43814;BME280;29669;55.706;37.656;2022-12-15T16:00:19;100228.78;;;-3.87;nan
43814;BME280;29669;55.706;37.656;2022-12-15T16:03:07;100205.19;;;-3.89;nan
43814;BME280;29669;55.706;37.656;2022-12-15T16:05:56;100212.91;;;-3.92;nan
43814;BME280;29669;55.706;37.656;2022-12-15T16:08:46;100202.13;;;-3.97;nan
43814;BME280;29669;55.706;37.656;2022-12-15T16:11:35;100187.69;;;-3.95;nan
43814;BME280;29669;55.706;37.656;2022-12-15T16:14:23;100191.13;;;-3.96;nan
43814;BME280;29669;55.706;37.656;2022-12-15T16:17:11;100187.84;;;-3.98;nan
43814;BME280;29669;55.706;37.656;2022-12-15T16:19:59;100172.47;;;-3.95;nan
43814;BME280;29669;55.706;37.656;2022-12-15T16:23:01;100169.88;;;-3.93;nan
43814;BME280;29669;55.706;37.656;2022-12-15T16:25:52;100164.81;;;-3.93;nan
43814;BME280;29669;55.706;37.656;2022-12-15T16:28:41;100174.00;;;-3.91;nan
43814;BME280;29669;55.706;37.656;2022-12-15T16:31:32;100163.88;;;-3.91;nan
43814;BME280;29669;55.706;37.656;2022-12-15T16:34:27;100154.66;;;-3.93;nan
43814;BME280;29669;55.706;37.656;2022-12-15T16:37:26;100140.16;;;-3.90;nan
43814;BME280;29669;55.706;37.656;2022-12-15T16:40:17;100130.00;;;-3.90;nan
43814;BME280;29669;55.706;37.656;2022-12-15T16:43:25;100115.63;;;-3.89;nan
43814;BME280;29669;55.706;37.656;2022-12-15T16:46:15;100119.06;;;-3.90;nan
43814;BME280;29669;55.706;37.656;2022-12-15T16:49:03;100114.31;;;-3.98;nan
43814;BME280;29669;55.706;37.656;2022-12-15T16:54:40;100110.25;;;-4.02;nan
43814;BME280;29669;55.706;37.656;2022-12-15T16:57:28;100110.13;;;-3.99;nan
43814;BME280;29669;55.706;37.656;2022-12-15T17:00:19;100110.00;;;-3.96;nan
43814;BME280;29669;55.706;37.656;2022-12-15T17:06:00;100109.88;;;-3.93;nan
43814;BME280;29669;55.706;37.656;2022-12-15T17:08:53;100104.66;;;-3.90;nan
43814;BME280;29669;55.706;37.656;2022-12-15T17:11:41;100095.41;;;-3.91;nan
43814;BME280;29669;55.706;37.656;2022-12-15T17:14:29;100091.22;;;-3.92;nan
43814;BME280;29669;55.706;37.656;2022-12-15T17:17:18;100094.25;;;-3.84;nan
43814;BME280;29669;55.706;37.656;2022-12-15T17:20:06;100087.56;;;-3.85;nan
43814;BME280;29669;55.706;37.656;2022-12-15T17:23:19;100069.91;;;-3.88;nan
43814;BME280;29669;55.706;37.656;2022-12-15T17:26:11;100069.88;;;-3.86;nan
43814;BME280;29669;55.706;37.656;2022-12-15T17:29:20;100068.06;;;-3.84;nan
43814;BME280;29669;55.706;37.656;2022-12-15T17:32:11;100062.97;;;-3.83;nan
43814;BME280;29669;55.706;37.656;2022-12-15T17:34:59;100064.66;;;-3.83;nan
43814;BME280;29669;55.706;37.656;2022-12-15T17:37:47;100050.00;;;-3.76;nan
43814;BME280;29669;55.706;37.656;2022-12-15T17:40:34;100045.75;;;-3.76;nan
43814;BME280;29669;55.706;37.656;2022-12-15T17:43:24;100024.78;;;-3.79;nan
43814;BME280;29669;55.706;37.656;2022-12-15T17:46:18;100015.19;;;-3.73;nan
43814;BME280;29669;55.706;37.656;2022-12-15T17:49:06;100004.97;;;-3.71;nan
43814;BME280;29669;55.706;37.656;2022-12-15T17:51:53;99999.69;;;-3.67;nan
43814;BME280;29669;55.706;37.656;2022-12-15T17:54:42;100002.09;;;-3.64;nan
43814;BME280;29669;55.706;37.656;2022-12-15T17:57:30;99988.44;;;-3.61;nan
43814;BME280;29669;55.706;37.656;2022-12-15T18:00:24;99984.13;;;-3.59;nan
43814;BME280;29669;55.706;37.656;2022-12-15T18:03:13;99968.84;;;-3.58;nan
43814;BME280;29669;55.706;37.656;2022-12-15T18:06:02;99966.09;;;-3.53;nan
43814;BME280;29669;55.706;37.656;2022-12-15T18:08:50;99944.00;;;-3.51;nan
43814;BME280;29669;55.706;37.656;2022-12-15T18:11:37;99943.81;;;-3.47;nan
43814;BME280;29669;55.706;37.656;2022-12-15T18:17:13;99928.22;;;-3.39;nan
43814;BME280;29669;55.706;37.656;2022-12-15T18:20:01;99924.66;;;-3.35;nan
43814;BME280;29669;55.706;37.656;2022-12-15T18:22:51;99922.88;;;-3.33;nan
43814;BME280;29669;55.706;37.656;2022-12-15T18:25:40;99915.84;;;-3.28;nan
43814;BME280;29669;55.706;37.656;2022-12-15T18:28:31;99917.34;;;-3.24;nan
43814;BME280;29669;55.706;37.656;2022-12-15T18:31:25;99921.25;;;-3.17;nan
43814;BME280;29669;55.706;37.656;2022-12-15T18:34:18;99909.00;;;-3.09;nan
43814;BME280;29669;55.706;37.656;2022-12-15T18:37:18;99891.16;;;-3.08;nan
43814;BME280;29669;55.706;37.656;2022-12-15T18:40:12;99883.25;;;-3.02;nan
43814;BME280;29669;55.706;37.656;2022-12-15T18:43:00;99889.06;;;-3.00;nan
43814;BME280;29669;55.706;37.656;2022-12-15T18:45:48;99893.16;;;-2.97;nan
43814;BME280;29669;55.706;37.656;2022-12-15T18:51:26;99891.16;;;-2.91;nan
43814;BME280;29669;55.706;37.656;2022-12-15T18:54:16;99875.75;;;-2.88;nan
43814;BME280;29669;55.706;37.656;2022-12-15T19:05:50;99872.41;;;-2.71;nan
43814;BME280;29669;55.706;37.656;2022-12-15T19:08:40;99873.44;;;-2.75;nan
43814;BME280;29669;55.706;37.656;2022-12-15T19:11:28;99870.81;;;-2.73;nan
43814;BME280;29669;55.706;37.656;2022-12-15T19:14:17;99859.69;;;-2.71;nan
43814;BME280;29669;55.706;37.656;2022-12-15T19:17:25;99858.03;;;-2.72;nan
43814;BME280;29669;55.706;37.656;2022-12-15T19:20:31;99854.28;;;-2.65;nan
43814;BME280;29669;55.706;37.656;2022-12-15T19:23:38;99848.22;;;-2.62;nan
43814;BME280;29669;55.706;37.656;2022-12-15T19:26:25;99846.22;;;-2.56;nan
43814;BME280;29669;55.706;37.656;2022-12-15T19:29:17;99835.22;;;-2.56;nan